METAR Data
IDs: Format: Raw Decoded Include TAF

Data at: 2051 UTC 17 Nov 2019

PTRO 172050Z 000000KT 14SM SCT015 SCT110 BKN290 24/23 A2981